createdAt,value
2022-09-22T00:01:38.398Z,5.48
2022-09-22T00:04:08.884Z,5.40
2022-09-22T00:06:47.690Z,5.31
2022-09-22T00:09:18.418Z,5.24
2022-09-22T00:11:49.866Z,5.17
2022-09-22T00:14:23.962Z,5.14
2022-09-22T00:17:01.286Z,5.13
2022-09-22T00:19:32.575Z,5.07
2022-09-22T00:22:00.852Z,5.00
2022-09-22T00:24:29.558Z,4.97
2022-09-22T00:26:59.629Z,4.92
2022-09-22T00:29:29.612Z,4.87
2022-09-22T00:32:00.273Z,4.83
2022-09-22T00:34:30.420Z,4.79
2022-09-22T00:36:58.273Z,4.77
2022-09-22T00:39:27.630Z,4.75
2022-09-22T00:41:55.440Z,4.73
2022-09-22T00:44:44.979Z,4.71
2022-09-22T00:47:37.422Z,4.68
2022-09-22T00:50:24.909Z,4.69
2022-09-22T00:52:56.072Z,4.67
2022-09-22T00:55:52.116Z,4.68
2022-09-22T00:58:26.974Z,4.64
2022-09-22T01:00:55.203Z,4.61
2022-09-22T01:03:29.586Z,4.58
2022-09-22T01:06:01.901Z,4.53
2022-09-22T01:08:31.714Z,4.46
2022-09-22T01:11:00.429Z,4.44
2022-09-22T01:13:35.480Z,4.46
2022-09-22T01:16:06.214Z,4.44
2022-09-22T01:19:16.124Z,4.42
2022-09-22T01:21:59.369Z,4.36
2022-09-22T01:24:54.173Z,4.32
2022-09-22T01:28:00.591Z,4.27
2022-09-22T01:31:00.740Z,4.23
2022-09-22T01:33:28.659Z,4.16
2022-09-22T01:36:19.289Z,4.09
2022-09-22T01:39:12.348Z,4.01
2022-09-22T01:41:48.978Z,3.99
2022-09-22T01:44:25.432Z,3.94
2022-09-22T01:47:00.491Z,3.91
2022-09-22T01:49:32.870Z,3.87
2022-09-22T01:52:08.824Z,3.84
2022-09-22T01:54:42.297Z,3.80
2022-09-22T01:57:18.216Z,3.75
2022-09-22T01:59:55.127Z,3.73
2022-09-22T02:02:33.887Z,3.70
2022-09-22T02:05:06.373Z,3.68
2022-09-22T02:07:39.636Z,3.70
2022-09-22T02:10:11.682Z,3.66
2022-09-22T02:12:39.720Z,3.57
2022-09-22T02:15:29.390Z,3.50
2022-09-22T02:18:03.062Z,3.45
2022-09-22T02:20:31.034Z,3.46
2022-09-22T02:22:59.090Z,3.49
2022-09-22T02:25:29.162Z,3.50
2022-09-22T02:27:58.253Z,3.51
2022-09-22T02:30:27.610Z,3.51
2022-09-22T02:32:58.818Z,3.48
2022-09-22T02:35:30.030Z,3.49
2022-09-22T02:38:00.772Z,3.47
2022-09-22T02:40:33.310Z,3.43
2022-09-22T02:43:09.345Z,3.42
2022-09-22T02:45:51.214Z,3.37
2022-09-22T02:48:24.700Z,3.33
2022-09-22T02:50:54.468Z,3.29
2022-09-22T02:53:22.644Z,3.24
2022-09-22T02:55:51.035Z,3.23
2022-09-22T02:58:18.934Z,3.20
2022-09-22T03:00:47.211Z,3.21
2022-09-22T03:03:15.187Z,3.20
2022-09-22T03:05:43.088Z,3.20
2022-09-22T03:08:10.950Z,3.20
2022-09-22T03:10:38.885Z,3.19
2022-09-22T03:13:16.458Z,3.16
2022-09-22T03:15:46.523Z,3.13
2022-09-22T03:18:14.924Z,3.10
2022-09-22T03:20:43.056Z,3.09
2022-09-22T03:23:10.938Z,3.05
2022-09-22T03:25:38.822Z,3.01
2022-09-22T03:28:06.599Z,3.00
2022-09-22T03:30:36.350Z,2.99
2022-09-22T03:33:04.283Z,2.99
2022-09-22T03:35:32.425Z,3.01
2022-09-22T03:38:00.239Z,3.05
2022-09-22T03:40:28.326Z,3.08
2022-09-22T03:42:56.286Z,3.07
2022-09-22T03:45:24.633Z,3.03
2022-09-22T03:47:54.461Z,3.01
2022-09-22T03:50:22.600Z,2.98
2022-09-22T03:52:50.458Z,2.93
2022-09-22T03:55:18.527Z,2.95
2022-09-22T03:57:46.960Z,2.93
2022-09-22T04:00:15.725Z,2.92
2022-09-22T04:02:44.038Z,2.93
2022-09-22T04:05:11.988Z,2.93
2022-09-22T04:07:39.932Z,2.97
2022-09-22T04:10:08.516Z,2.98
2022-09-22T04:12:37.426Z,3.00
2022-09-22T04:15:06.374Z,3.01
2022-09-22T04:17:34.612Z,3.01
2022-09-22T04:20:03.460Z,2.98
2022-09-22T04:22:31.433Z,2.97
2022-09-22T04:24:59.258Z,2.95
2022-09-22T04:27:27.134Z,2.98
2022-09-22T04:29:55.011Z,3.00
2022-09-22T04:32:23.524Z,3.01
2022-09-22T04:34:51.429Z,2.98
2022-09-22T04:37:19.388Z,2.91
2022-09-22T04:39:47.169Z,2.88
2022-09-22T04:42:15.315Z,2.84
2022-09-22T04:44:43.490Z,2.82
2022-09-22T04:47:11.320Z,2.80
2022-09-22T04:49:39.423Z,2.81
2022-09-22T04:52:07.938Z,2.77
2022-09-22T04:54:36.320Z,2.79
2022-09-22T04:57:04.337Z,2.78
2022-09-22T04:59:32.422Z,2.79
2022-09-22T05:02:00.339Z,2.83
2022-09-22T05:04:28.813Z,2.85
2022-09-22T05:06:56.629Z,2.89
2022-09-22T05:09:24.925Z,2.94
2022-09-22T05:11:54.440Z,3.03
2022-09-22T05:14:26.513Z,3.05
2022-09-22T05:16:54.661Z,3.13
2022-09-22T05:19:22.660Z,3.23
2022-09-22T05:21:51.018Z,3.30
2022-09-22T05:24:18.897Z,3.38
2022-09-22T05:26:47.163Z,3.48
2022-09-22T05:29:16.050Z,3.52
2022-09-22T05:31:45.529Z,3.60
2022-09-22T05:34:13.387Z,3.66
2022-09-22T05:36:41.613Z,3.72
2022-09-22T05:39:09.598Z,3.79
2022-09-22T05:41:37.486Z,3.92
2022-09-22T05:44:05.339Z,4.05
2022-09-22T05:46:33.422Z,4.20
2022-09-22T05:49:01.272Z,4.36
2022-09-22T05:51:29.127Z,4.55
2022-09-22T05:53:57.009Z,4.79
2022-09-22T05:56:24.853Z,5.04
2022-09-22T05:58:52.636Z,5.28
2022-09-22T06:01:20.535Z,5.51
2022-09-22T06:03:48.330Z,5.74
2022-09-22T06:06:16.228Z,5.99
2022-09-22T06:08:48.613Z,6.21
2022-09-22T06:11:17.073Z,6.44
2022-09-22T06:13:45.121Z,6.62
2022-09-22T06:16:13.322Z,6.80
2022-09-22T06:18:41.514Z,6.95
2022-09-22T06:21:09.784Z,7.12
2022-09-22T06:23:42.587Z,7.27
2022-09-22T06:26:11.705Z,7.39
2022-09-22T06:28:39.568Z,7.55
2022-09-22T06:31:07.483Z,7.68
2022-09-22T06:33:35.967Z,7.81
2022-09-22T06:36:08.127Z,7.95
2022-09-22T06:38:36.095Z,8.07
2022-09-22T06:41:06.881Z,8.17
2022-09-22T06:43:38.015Z,8.30
2022-09-22T06:46:06.148Z,8.41
2022-09-22T06:48:34.746Z,8.54
2022-09-22T06:51:02.568Z,8.62
2022-09-22T06:53:31.266Z,8.69
2022-09-22T06:56:00.518Z,8.75
2022-09-22T06:58:29.237Z,8.83
2022-09-22T07:01:08.932Z,8.93
2022-09-22T07:03:41.813Z,9.07
2022-09-22T07:06:11.114Z,9.18
2022-09-22T07:08:39.674Z,9.28
2022-09-22T07:11:09.508Z,9.35
2022-09-22T07:13:41.256Z,9.48
2022-09-22T07:16:17.911Z,9.61
2022-09-22T07:18:51.552Z,9.69
2022-09-22T07:21:25.773Z,9.80
2022-09-22T07:23:55.639Z,9.92
2022-09-22T07:26:30.878Z,10.02
2022-09-22T07:29:00.994Z,10.17
2022-09-22T07:31:32.288Z,10.29
2022-09-22T07:34:00.904Z,10.41
2022-09-22T07:36:31.461Z,10.54
2022-09-22T07:39:07.754Z,10.63
2022-09-22T07:41:43.831Z,10.76
2022-09-22T07:44:33.756Z,10.81
2022-09-22T07:47:03.684Z,10.90
2022-09-22T07:49:32.394Z,10.99
2022-09-22T07:52:00.346Z,11.09
2022-09-22T07:54:28.310Z,11.17
2022-09-22T07:56:59.060Z,11.25
2022-09-22T07:59:27.711Z,11.38
2022-09-22T08:01:55.963Z,11.33
2022-09-22T08:04:26.791Z,11.42
2022-09-22T08:06:56.242Z,11.51
2022-09-22T08:09:25.528Z,11.63
2022-09-22T08:11:55.212Z,11.76
2022-09-22T08:14:23.318Z,11.85
2022-09-22T08:16:53.749Z,11.95
2022-09-22T08:19:23.777Z,12.05
2022-09-22T08:21:54.319Z,12.18
2022-09-22T08:24:23.828Z,12.33
2022-09-22T08:26:56.095Z,12.40
2022-09-22T08:29:25.340Z,12.48
2022-09-22T08:31:54.406Z,12.54
2022-09-22T08:34:23.239Z,12.58
2022-09-22T08:36:51.905Z,12.63
2022-09-22T08:39:19.778Z,12.71
2022-09-22T08:42:18.434Z,12.80
2022-09-22T08:45:03.103Z,12.88
2022-09-22T08:48:12.670Z,12.82
2022-09-22T08:51:07.856Z,12.81
2022-09-22T08:53:43.595Z,12.95
2022-09-22T08:56:22.257Z,13.05
2022-09-22T08:59:23.867Z,13.12
2022-09-22T09:02:29.047Z,13.26
2022-09-22T09:05:15.413Z,13.46
2022-09-22T09:08:00.409Z,13.61
2022-09-22T09:10:43.108Z,13.73
2022-09-22T09:13:41.186Z,13.96
2022-09-22T09:16:38.168Z,14.27
2022-09-22T09:19:35.090Z,14.46
2022-09-22T09:22:12.672Z,14.50
2022-09-22T09:27:42.536Z,14.61
2022-09-22T09:30:16.173Z,14.71
2022-09-22T09:32:55.913Z,14.79
2022-09-22T09:35:44.337Z,14.73
2022-09-22T09:38:16.876Z,14.60
2022-09-22T09:40:54.397Z,14.47
2022-09-22T09:43:25.838Z,14.31
2022-09-22T09:46:15.033Z,14.19
2022-09-22T09:49:02.839Z,14.10
2022-09-22T09:51:39.912Z,14.06
2022-09-22T09:54:18.834Z,14.16
2022-09-22T09:57:09.677Z,14.31
2022-09-22T09:59:58.856Z,14.67
2022-09-22T10:02:38.863Z,14.85
2022-09-22T10:05:22.501Z,15.04
2022-09-22T10:07:58.256Z,15.21
2022-09-22T10:10:28.809Z,15.11
2022-09-22T10:13:05.612Z,15.10
2022-09-22T10:15:36.454Z,15.18
2022-09-22T10:18:24.303Z,15.14
2022-09-22T10:21:19.158Z,15.25
2022-09-22T10:23:54.903Z,15.41
2022-09-22T10:26:27.108Z,15.51
2022-09-22T10:29:20.023Z,15.69
2022-09-22T10:32:15.733Z,15.91
2022-09-22T10:34:50.862Z,16.20
2022-09-22T10:37:28.161Z,16.48
2022-09-22T10:40:02.001Z,16.82
2022-09-22T10:42:40.986Z,16.99
2022-09-22T10:45:19.300Z,17.13
2022-09-22T10:47:51.458Z,17.28
2022-09-22T10:50:41.460Z,17.22
2022-09-22T10:53:35.021Z,17.30
2022-09-22T10:56:13.876Z,17.08
2022-09-22T10:59:20.611Z,17.02
2022-09-22T11:02:25.774Z,16.79
2022-09-22T11:05:50.981Z,16.48
2022-09-22T11:08:39.768Z,16.33
2022-09-22T11:11:37.256Z,16.29
2022-09-22T11:14:18.877Z,16.19
2022-09-22T11:17:05.321Z,16.17
2022-09-22T11:19:58.785Z,16.19
2022-09-22T11:22:26.588Z,16.33
2022-09-22T11:25:25.134Z,16.48
2022-09-22T11:28:04.885Z,16.51
2022-09-22T11:30:45.789Z,16.29
2022-09-22T11:33:32.434Z,16.08
2022-09-22T11:36:18.840Z,16.07
2022-09-22T11:39:00.595Z,16.06
2022-09-22T11:41:47.658Z,15.95
2022-09-22T11:44:30.886Z,16.00
2022-09-22T11:47:20.763Z,15.96
2022-09-22T11:50:14.250Z,15.96
2022-09-22T11:53:06.502Z,16.12
2022-09-22T11:55:41.806Z,16.37
2022-09-22T11:58:21.564Z,16.67
2022-09-22T12:01:13.721Z,16.75
2022-09-22T12:03:50.602Z,16.81
2022-09-22T12:06:21.871Z,16.74
2022-09-22T12:09:03.647Z,16.69
2022-09-22T12:11:36.898Z,16.64
2022-09-22T12:14:06.850Z,16.51
2022-09-22T12:16:42.274Z,16.40
2022-09-22T12:19:32.388Z,16.35
2022-09-22T12:22:21.721Z,16.28
2022-09-22T12:24:49.725Z,16.22
2022-09-22T12:27:17.429Z,16.01
2022-09-22T12:29:46.354Z,15.87
2022-09-22T12:32:36.203Z,15.73
2022-09-22T12:35:05.695Z,15.63
2022-09-22T12:37:38.316Z,15.53
2022-09-22T12:40:37.357Z,15.48
2022-09-22T12:43:06.077Z,15.46
2022-09-22T12:45:37.632Z,15.46
2022-09-22T12:48:15.065Z,15.47
2022-09-22T12:50:45.161Z,15.44
2022-09-22T12:53:22.090Z,15.43
2022-09-22T12:55:57.229Z,15.45
2022-09-22T12:58:28.716Z,15.47
2022-09-22T13:01:28.522Z,15.54
2022-09-22T13:04:12.018Z,15.61
2022-09-22T13:06:39.799Z,15.64
2022-09-22T13:09:18.846Z,15.75
2022-09-22T13:12:23.070Z,15.80
2022-09-22T13:15:06.245Z,15.85
2022-09-22T13:17:41.570Z,16.00
2022-09-22T13:20:22.166Z,16.15
2022-09-22T13:22:52.150Z,16.26
2022-09-22T13:25:24.273Z,16.27
2022-09-22T13:28:13.071Z,16.34
2022-09-22T13:30:43.228Z,16.39
2022-09-22T13:33:25.811Z,16.51
2022-09-22T13:36:06.510Z,16.64
2022-09-22T13:38:38.535Z,16.69
2022-09-22T13:41:19.061Z,16.70
2022-09-22T13:43:56.711Z,16.74
2022-09-22T13:46:47.039Z,16.84
2022-09-22T13:49:35.984Z,16.84
2022-09-22T13:52:12.758Z,16.87
2022-09-22T13:54:41.316Z,16.84
2022-09-22T13:57:20.578Z,16.85
2022-09-22T13:59:48.783Z,16.88
2022-09-22T14:02:22.963Z,16.96
2022-09-22T14:04:56.636Z,16.85
2022-09-22T14:07:29.964Z,16.84
2022-09-22T14:10:01.435Z,16.73
2022-09-22T14:12:30.425Z,16.69
2022-09-22T14:15:36.962Z,16.71
2022-09-22T14:18:16.821Z,16.57
2022-09-22T14:20:45.796Z,16.46
2022-09-22T14:23:23.701Z,16.41
2022-09-22T14:25:51.754Z,16.39
2022-09-22T14:28:25.076Z,16.40
2022-09-22T14:30:53.994Z,16.34
2022-09-22T14:33:29.749Z,16.23
2022-09-22T14:36:05.066Z,16.18
2022-09-22T14:38:48.153Z,16.12
2022-09-22T14:41:36.593Z,15.99
2022-09-22T14:44:52.467Z,15.94
2022-09-22T14:47:26.533Z,15.88
2022-09-22T14:50:16.928Z,15.85
2022-09-22T14:52:54.326Z,15.80
2022-09-22T14:55:34.591Z,15.77
2022-09-22T14:58:22.853Z,15.63
2022-09-22T15:01:18.307Z,15.55
2022-09-22T15:03:55.705Z,15.53
2022-09-22T15:06:23.646Z,15.50
2022-09-22T15:08:52.654Z,15.46
2022-09-22T15:11:20.543Z,15.39
2022-09-22T15:13:51.526Z,15.34
2022-09-22T15:16:36.003Z,15.29
2022-09-22T15:19:05.362Z,15.28
2022-09-22T15:21:37.961Z,15.27
2022-09-22T15:24:06.174Z,15.25
2022-09-22T15:26:34.334Z,15.23
2022-09-22T15:29:02.999Z,15.20
2022-09-22T15:31:32.552Z,15.20
2022-09-22T15:34:03.137Z,15.14
2022-09-22T15:36:33.298Z,15.12
2022-09-22T15:39:22.730Z,15.13
2022-09-22T15:41:52.444Z,15.12
2022-09-22T15:44:20.748Z,15.07
2022-09-22T15:46:54.514Z,15.04
2022-09-22T15:49:26.371Z,15.03
2022-09-22T15:51:56.108Z,15.01
2022-09-22T15:54:26.230Z,14.98
2022-09-22T15:56:55.901Z,14.87
2022-09-22T15:59:28.406Z,14.79
2022-09-22T16:01:59.347Z,14.71
2022-09-22T16:04:30.593Z,14.64
2022-09-22T16:07:02.766Z,14.59
2022-09-22T16:09:31.259Z,14.54
2022-09-22T16:11:59.809Z,14.48
2022-09-22T16:14:27.998Z,14.42
2022-09-22T16:16:55.836Z,14.34
2022-09-22T16:19:23.682Z,14.23
2022-09-22T16:21:56.415Z,14.15
2022-09-22T16:24:28.054Z,14.06
2022-09-22T16:26:56.324Z,13.97
2022-09-22T16:29:25.334Z,13.91
2022-09-22T16:31:53.978Z,13.83
2022-09-22T16:34:22.078Z,13.73
2022-09-22T16:36:49.976Z,13.66
2022-09-22T16:39:17.802Z,13.58
2022-09-22T16:41:46.596Z,13.51
2022-09-22T16:44:16.112Z,13.41
2022-09-22T16:46:44.047Z,13.33
2022-09-22T16:49:16.301Z,13.17
2022-09-22T16:51:48.873Z,13.07
2022-09-22T16:54:19.579Z,12.95
2022-09-22T16:56:50.009Z,12.83
2022-09-22T16:59:19.753Z,12.72
2022-09-22T17:01:49.063Z,12.57
2022-09-22T17:04:19.323Z,12.43
2022-09-22T17:06:48.234Z,12.25
2022-09-22T17:09:16.898Z,12.10
2022-09-22T17:11:48.815Z,11.95
2022-09-22T17:14:22.105Z,11.82
2022-09-22T17:16:52.500Z,11.69
2022-09-22T17:19:23.581Z,11.55
2022-09-22T17:21:54.094Z,11.41
2022-09-22T17:24:23.682Z,11.27
2022-09-22T17:26:54.632Z,11.13
2022-09-22T17:29:25.483Z,10.97
2022-09-22T17:31:57.400Z,10.81
2022-09-22T17:34:28.892Z,10.68
2022-09-22T17:36:58.087Z,10.54
2022-09-22T17:39:28.387Z,10.42
2022-09-22T17:41:56.750Z,10.31
2022-09-22T17:44:28.677Z,10.19
2022-09-22T17:47:15.462Z,10.08
2022-09-22T17:50:02.157Z,10.00
2022-09-22T17:52:49.024Z,9.86
2022-09-22T17:55:21.746Z,9.70
2022-09-22T17:57:51.840Z,9.56
2022-09-22T18:00:22.308Z,9.44
2022-09-22T18:02:52.754Z,9.33
2022-09-22T18:05:25.621Z,9.24
2022-09-22T18:07:57.915Z,9.11
2022-09-22T18:10:31.095Z,8.98
2022-09-22T18:13:00.038Z,8.87
2022-09-22T18:15:29.386Z,8.79
2022-09-22T18:17:58.298Z,8.73
2022-09-22T18:20:27.784Z,8.66
2022-09-22T18:22:57.963Z,8.62
2022-09-22T18:25:25.933Z,8.55
2022-09-22T18:27:54.591Z,8.47
2022-09-22T18:30:23.193Z,8.38
2022-09-22T18:32:51.900Z,8.32
2022-09-22T18:35:20.275Z,8.23
2022-09-22T18:37:48.135Z,8.18
2022-09-22T18:40:17.276Z,8.12
2022-09-22T18:42:45.385Z,8.12
2022-09-22T18:45:14.399Z,8.12
2022-09-22T18:47:43.812Z,8.06
2022-09-22T18:50:12.772Z,8.01
2022-09-22T18:52:43.344Z,7.95
2022-09-22T18:55:14.198Z,7.88
2022-09-22T18:57:43.163Z,7.79
2022-09-22T19:00:11.713Z,7.68
2022-09-22T19:02:40.000Z,7.58
2022-09-22T19:05:08.594Z,7.49
2022-09-22T19:07:43.886Z,7.43
2022-09-22T19:10:21.918Z,7.38
2022-09-22T19:12:50.840Z,7.36
2022-09-22T19:15:19.819Z,7.32
2022-09-22T19:17:49.842Z,7.25
2022-09-22T19:20:23.432Z,7.20
2022-09-22T19:22:52.841Z,7.16
2022-09-22T19:25:22.461Z,7.11
2022-09-22T19:27:53.013Z,7.07
2022-09-22T19:30:24.792Z,7.00
2022-09-22T19:32:55.653Z,6.94
2022-09-22T19:35:24.022Z,6.89
2022-09-22T19:37:52.438Z,6.80
2022-09-22T19:40:24.429Z,6.71
2022-09-22T19:42:54.085Z,6.62
2022-09-22T19:45:24.089Z,6.61
2022-09-22T19:47:54.053Z,6.58
2022-09-22T19:50:21.982Z,6.56
2022-09-22T19:52:50.236Z,6.49
2022-09-22T19:55:21.009Z,6.48
2022-09-22T19:57:52.447Z,6.43
2022-09-22T20:00:26.769Z,6.31
2022-09-22T20:02:59.218Z,6.22
2022-09-22T20:05:34.755Z,6.15
2022-09-22T20:08:15.705Z,6.09
2022-09-22T20:10:45.603Z,6.03
2022-09-22T20:13:33.038Z,5.97
2022-09-22T20:16:01.980Z,5.94
2022-09-22T20:18:29.996Z,5.92
2022-09-22T20:21:01.461Z,5.86
2022-09-22T20:23:29.469Z,5.81
2022-09-22T20:25:57.348Z,5.75
2022-09-22T20:28:25.305Z,5.70
2022-09-22T20:30:53.347Z,5.68
2022-09-22T20:33:23.624Z,5.64
2022-09-22T20:35:57.646Z,5.60
2022-09-22T20:38:25.954Z,5.59
2022-09-22T20:40:53.879Z,5.55
2022-09-22T20:43:21.827Z,5.49
2022-09-22T20:45:49.781Z,5.45
2022-09-22T20:48:19.205Z,5.43
2022-09-22T20:50:57.605Z,5.40
2022-09-22T20:53:26.794Z,5.39
2022-09-22T20:56:06.804Z,5.38
2022-09-22T20:58:40.712Z,5.36
2022-09-22T21:01:10.603Z,5.34
2022-09-22T21:03:39.770Z,5.32
2022-09-22T21:06:10.088Z,5.26
2022-09-22T21:08:59.404Z,5.19
2022-09-22T21:11:28.450Z,5.12
2022-09-22T21:14:05.747Z,5.09
2022-09-22T21:16:38.424Z,5.05
2022-09-22T21:19:07.674Z,5.06
2022-09-22T21:21:37.864Z,5.06
2022-09-22T21:24:08.209Z,5.05
2022-09-22T21:26:36.207Z,5.04
2022-09-22T21:29:05.033Z,5.01
2022-09-22T21:31:34.547Z,4.99
2022-09-22T21:34:02.481Z,4.98
2022-09-22T21:36:30.511Z,4.99
2022-09-22T21:39:00.152Z,5.01
2022-09-22T21:41:30.414Z,4.98
2022-09-22T21:44:00.139Z,4.92
2022-09-22T21:46:30.016Z,4.87
2022-09-22T21:49:02.056Z,4.82
2022-09-22T21:51:36.352Z,4.72
2022-09-22T21:54:05.659Z,4.64
2022-09-22T21:56:34.747Z,4.61
2022-09-22T21:59:04.595Z,4.58
2022-09-22T22:01:35.393Z,4.55
2022-09-22T22:04:08.207Z,4.52
2022-09-22T22:06:40.301Z,4.49
2022-09-22T22:09:22.885Z,4.49
2022-09-22T22:11:54.876Z,4.47
2022-09-22T22:14:24.892Z,4.44
2022-09-22T22:16:54.949Z,4.47
2022-09-22T22:19:27.060Z,4.45
2022-09-22T22:21:55.577Z,4.40
2022-09-22T22:24:42.293Z,4.34
2022-09-22T22:27:10.834Z,4.27
2022-09-22T22:29:41.151Z,4.22
2022-09-22T22:32:10.737Z,4.16
2022-09-22T22:34:38.865Z,4.10
2022-09-22T22:37:09.642Z,4.06
2022-09-22T22:39:38.791Z,4.00
2022-09-22T22:42:07.083Z,4.02
2022-09-22T22:44:35.374Z,4.01
2022-09-22T22:47:05.356Z,3.96
2022-09-22T22:49:34.058Z,3.97
2022-09-22T22:52:02.194Z,3.96
2022-09-22T22:54:30.041Z,3.97
2022-09-22T22:56:57.910Z,3.98
2022-09-22T22:59:25.725Z,3.94
2022-09-22T23:01:54.214Z,3.85
2022-09-22T23:04:22.286Z,3.78
2022-09-22T23:06:50.126Z,3.74
2022-09-22T23:09:18.065Z,3.70
2022-09-22T23:11:46.584Z,3.65
2022-09-22T23:14:16.336Z,3.68
2022-09-22T23:16:46.882Z,3.68
2022-09-22T23:19:17.310Z,3.68
2022-09-22T23:21:46.700Z,3.66
2022-09-22T23:24:16.829Z,3.68
2022-09-22T23:26:46.407Z,3.63
2022-09-22T23:29:14.688Z,3.60
2022-09-22T23:31:43.085Z,3.56
2022-09-22T23:34:11.098Z,3.54
2022-09-22T23:36:39.748Z,3.49
2022-09-22T23:39:08.357Z,3.48
2022-09-22T23:41:37.286Z,3.46
2022-09-22T23:44:07.052Z,3.46
2022-09-22T23:46:37.632Z,3.44
2022-09-22T23:49:06.212Z,3.42
2022-09-22T23:51:33.982Z,3.39
2022-09-22T23:54:01.856Z,3.37
2022-09-22T23:56:29.860Z,3.35
2022-09-22T23:58:57.961Z,3.31
